Time;durP1;ratioP1;P1;durP2;ratioP2;P2;SDS_P1;SDS_P2;PMS_P1;PMS_P2;Temp;Humidity;BMP_temperature;BMP_pressure;BME280_temperature;BME280_humidity;BME280_pressure;Samples;Min_cycle;Max_cycle;Signal;HPM_P1;HPM_P2
2023/07/07 00:02:17;;;;;;;;;;;;;;;16.59;47.06;100338.97;5075965;28;1039;-60
2023/07/07 00:04:43;;;;;;;;;;;;;;;16.56;46.91;100341.44;5075615;28;1105;-59
2023/07/07 00:07:09;;;;;;;;;;;;;;;16.55;47.17;100337.88;5075820;28;1079;-59
2023/07/07 00:09:35;;;;;;;;;;;;;;;16.58;47.00;100344.75;5075347;28;1106;-59
2023/07/07 00:12:01;;;;;;;;;;;;;;;16.64;47.01;100349.06;5075983;28;908;-59
2023/07/07 00:14:26;;;;;;;;;;;;;;;16.57;46.95;100349.38;5075603;28;1982;-59
2023/07/07 00:16:52;;;;;;;;;;;;;;;16.51;47.17;100344.19;5075785;28;1075;-59
2023/07/07 00:19:18;;;;;;;;;;;;;;;16.49;47.16;100349.16;5075711;28;1063;-59
2023/07/07 00:21:43;;;;;;;;;;;;;;;16.50;47.10;100348.88;5075554;28;1121;-59
2023/07/07 00:24:09;;;;;;;;;;;;;;;16.52;47.14;100349.44;5075582;28;845;-58
2023/07/07 00:26:35;;;;;;;;;;;;;;;16.48;47.05;100344.78;5062372;28;1115;-59
2023/07/07 00:29:00;;;;;;;;;;;;;;;16.57;46.98;100334.84;5075514;28;1019;-59
2023/07/07 00:31:26;;;;;;;;;;;;;;;16.52;46.83;100337.63;5075955;28;1098;-59
2023/07/07 00:33:52;;;;;;;;;;;;;;;16.50;47.13;100342.59;5075308;28;1913;-58
2023/07/07 00:36:18;;;;;;;;;;;;;;;16.46;47.08;100333.28;5075499;28;876;-59
2023/07/07 00:38:43;;;;;;;;;;;;;;;16.48;46.99;100347.53;5075668;28;1146;-59
2023/07/07 00:41:09;;;;;;;;;;;;;;;16.52;47.16;100334.88;5057150;28;1142;-59
2023/07/07 00:43:34;;;;;;;;;;;;;;;16.54;47.01;100351.91;5059201;28;1093;-59
2023/07/07 00:46:00;;;;;;;;;;;;;;;16.48;47.18;100350.28;5078873;28;1086;-60
2023/07/07 00:48:36;;;;;;;;;;;;;;;16.52;47.10;100362.31;5078737;28;1229;-61
2023/07/07 00:51:03;;;;;;;;;;;;;;;16.51;47.01;100352.44;5079479;28;1131;-61
2023/07/07 00:53:29;;;;;;;;;;;;;;;16.51;46.96;100345.03;5044288;28;1972;-61
2023/07/07 00:55:55;;;;;;;;;;;;;;;16.53;46.74;100353.00;5079177;28;1123;-60
2023/07/07 00:58:21;;;;;;;;;;;;;;;16.46;47.07;100349.75;5060882;28;1092;-61
2023/07/07 01:00:48;;;;;;;;;;;;;;;16.36;47.26;100343.19;5061235;28;1058;-61
2023/07/07 01:03:16;;;;;;;;;;;;;;;16.49;46.97;100351.91;5078429;28;1150;-60
2023/07/07 01:05:42;;;;;;;;;;;;;;;16.41;47.16;100350.56;5061008;28;1269;-60
2023/07/07 01:08:07;;;;;;;;;;;;;;;16.46;46.97;100360.72;5060861;28;1183;-60
2023/07/07 01:10:33;;;;;;;;;;;;;;;16.52;46.88;100362.31;5078902;28;1142;-61
2023/07/07 01:12:59;;;;;;;;;;;;;;;16.39;47.29;100356.34;5078816;28;1138;-60
2023/07/07 01:15:26;;;;;;;;;;;;;;;16.40;47.22;100346.22;5078849;28;2049;-60
2023/07/07 01:17:58;;;;;;;;;;;;;;;16.42;46.66;100342.09;5061049;28;1075;-60
2023/07/07 01:21:01;;;;;;;;;;;;;;;16.41;47.02;100334.94;5078918;28;1150;-60
2023/07/07 01:23:32;;;;;;;;;;;;;;;16.47;46.90;100338.47;5054084;28;1150;-60
2023/07/07 01:26:09;;;;;;;;;;;;;;;16.43;46.77;100331.91;5074115;28;1096;-60
2023/07/07 01:28:41;;;;;;;;;;;;;;;16.37;46.81;100335.81;5060636;28;1079;-60
2023/07/07 01:31:16;;;;;;;;;;;;;;;16.46;46.62;100347.81;5078281;28;1162;-60
2023/07/07 01:33:42;;;;;;;;;;;;;;;16.41;47.02;100343.19;5040469;28;1982;-59
2023/07/07 01:36:08;;;;;;;;;;;;;;;16.41;46.61;100342.34;5059422;28;1227;-59
2023/07/07 01:38:41;;;;;;;;;;;;;;;16.43;46.92;100332.72;5078230;28;1067;-59
2023/07/07 01:41:15;;;;;;;;;;;;;;;16.37;46.84;100349.53;5078652;28;1051;-59
2023/07/07 01:44:19;;;;;;;;;;;;;;;16.40;46.80;100333.31;5060603;28;1194;-59
2023/07/07 01:46:51;;;;;;;;;;;;;;;16.39;46.74;100330.84;4976856;28;1400;-58
2023/07/07 01:49:26;;;;;;;;;;;;;;;16.33;46.94;100334.72;4965512;28;1210;-59
2023/07/07 01:52:10;;;;;;;;;;;;;;;16.36;47.14;100340.47;5025227;28;1068;-59
2023/07/07 01:54:38;;;;;;;;;;;;;;;16.44;46.76;100344.53;5077796;28;1910;-60
2023/07/07 01:57:04;;;;;;;;;;;;;;;16.33;47.11;100351.19;5060121;28;1059;-60
2023/07/07 01:59:30;;;;;;;;;;;;;;;16.33;46.94;100348.44;5059914;28;1111;-60
2023/07/07 02:01:55;;;;;;;;;;;;;;;16.34;46.98;100350.91;5077897;28;1206;-60
2023/07/07 02:04:21;;;;;;;;;;;;;;;16.33;47.15;100354.75;5078119;28;1051;-60
2023/07/07 02:06:47;;;;;;;;;;;;;;;16.34;47.11;100350.91;5060055;28;1689;-60
2023/07/07 02:09:13;;;;;;;;;;;;;;;16.38;47.05;100340.16;5077782;28;1078;-61
2023/07/07 02:11:39;;;;;;;;;;;;;;;16.39;46.95;100345.38;5077480;28;1098;-60
2023/07/07 02:14:04;;;;;;;;;;;;;;;16.30;47.18;100343.50;5077756;28;1914;-60
2023/07/07 02:16:30;;;;;;;;;;;;;;;16.38;46.88;100341.00;5077527;28;1150;-60
2023/07/07 02:18:55;;;;;;;;;;;;;;;16.38;46.87;100346.50;5059563;28;2099;-60
2023/07/07 02:21:21;;;;;;;;;;;;;;;16.33;47.15;100330.06;5059625;28;1532;-60
2023/07/07 02:23:47;;;;;;;;;;;;;;;16.25;47.23;100339.69;5077146;28;1136;-59
2023/07/07 02:26:18;;;;;;;;;;;;;;;16.23;47.09;100335.59;5077195;28;1087;-59
2023/07/07 02:28:43;;;;;;;;;;;;;;;16.27;47.30;100338.59;5077293;28;1050;-59
2023/07/07 02:31:09;;;;;;;;;;;;;;;16.32;46.91;100346.78;5076883;28;1098;-59
2023/07/07 02:33:35;;;;;;;;;;;;;;;16.30;47.08;100352.56;5077528;28;1905;-59
2023/07/07 02:36:01;;;;;;;;;;;;;;;16.25;47.14;100350.66;5076822;28;1114;-59
2023/07/07 02:38:27;;;;;;;;;;;;;;;16.25;46.93;100345.16;5085808;28;1038;-58
2023/07/07 02:40:53;;;;;;;;;;;;;;;16.36;46.95;100347.88;5077032;28;1142;-59
2023/07/07 02:43:19;;;;;;;;;;;;;;;16.30;47.11;100349.81;5077293;28;1012;-59
2023/07/07 02:45:44;;;;;;;;;;;;;;;16.33;47.04;100349.25;5077042;28;1133;-59
2023/07/07 02:48:10;;;;;;;;;;;;;;;16.32;47.00;100353.09;5058751;28;1314;-60
2023/07/07 02:50:36;;;;;;;;;;;;;;;16.31;47.14;100351.44;5077005;28;1245;-60
2023/07/07 02:53:02;;;;;;;;;;;;;;;16.25;47.29;100349.84;5058864;28;1360;-59
2023/07/07 02:55:28;;;;;;;;;;;;;;;16.30;47.08;100338.84;5077060;28;1894;-60
2023/07/07 02:57:53;;;;;;;;;;;;;;;16.27;47.18;100355.03;5077035;28;1051;-61
2023/07/07 03:00:20;;;;;;;;;;;;;;;16.28;47.14;100346.53;5058199;28;1151;-57
2023/07/07 03:02:46;;;;;;;;;;;;;;;16.23;47.26;100347.38;5076954;28;1150;-59
2023/07/07 03:05:12;;;;;;;;;;;;;;;16.30;47.10;100354.47;5076310;28;1107;-60
2023/07/07 03:07:39;;;;;;;;;;;;;;;16.29;47.13;100359.16;5058031;28;1262;-59
2023/07/07 03:10:05;;;;;;;;;;;;;;;16.30;46.90;100349.81;5058400;28;1503;-59
2023/07/07 03:12:34;;;;;;;;;;;;;;;16.29;47.22;100350.13;5058308;28;1374;-60
2023/07/07 03:14:59;;;;;;;;;;;;;;;16.20;47.35;100358.09;5076393;28;1909;-58
2023/07/07 03:17:26;;;;;;;;;;;;;;;16.34;46.96;100353.66;5058887;28;1206;-61
2023/07/07 03:19:52;;;;;;;;;;;;;;;16.31;47.16;100342.41;5042222;28;1146;-58
2023/07/07 03:22:20;;;;;;;;;;;;;;;16.23;47.06;100347.38;5058448;28;1303;-59
2023/07/07 03:24:55;;;;;;;;;;;;;;;16.25;47.25;100347.09;5058406;28;1170;-62
2023/07/07 03:27:35;;;;;;;;;;;;;;;16.30;46.99;100349.81;5076048;28;1213;-61
2023/07/07 03:30:02;;;;;;;;;;;;;;;16.26;47.33;100351.50;5057961;28;1122;-62
2023/07/07 03:32:35;;;;;;;;;;;;;;;16.31;47.00;100350.63;5058412;28;1225;-61
2023/07/07 03:35:04;;;;;;;;;;;;;;;16.25;47.20;100350.66;5058313;28;1981;-60
2023/07/07 03:37:29;;;;;;;;;;;;;;;16.25;47.27;100352.59;5045501;28;1331;-61
2023/07/07 03:39:56;;;;;;;;;;;;;;;16.33;46.84;100349.25;5057944;28;1154;-60
2023/07/07 03:42:21;;;;;;;;;;;;;;;16.31;47.06;100356.94;5076489;28;1134;-60
2023/07/07 03:44:48;;;;;;;;;;;;;;;16.28;47.25;100357.50;5058093;28;1515;-60
2023/07/07 03:47:14;;;;;;;;;;;;;;;16.28;46.95;100349.28;5076132;28;1015;-59
2023/07/07 03:49:41;;;;;;;;;;;;;;;16.31;47.09;100361.63;5057472;28;1278;-60
2023/07/07 03:52:08;;;;;;;;;;;;;;;16.37;46.77;100355.00;5058004;28;1130;-60
2023/07/07 03:54:33;;;;;;;;;;;;;;;16.35;47.48;100357.19;5076166;28;1980;-64
2023/07/07 03:56:59;;;;;;;;;;;;;;;16.38;48.05;100362.97;5075164;28;1083;-63
2023/07/07 03:59:25;;;;;;;;;;;;;;;16.29;48.12;100359.16;5057588;28;1019;-57
2023/07/07 04:01:51;;;;;;;;;;;;;;;16.41;47.31;100356.06;5070192;28;903;-61
2023/07/07 04:04:17;;;;;;;;;;;;;;;16.45;47.62;100356.31;5075648;28;1147;-62
2023/07/07 04:06:42;;;;;;;;;;;;;;;16.38;47.80;100362.97;5071942;28;1155;-59
2023/07/07 04:09:08;;;;;;;;;;;;;;;16.39;47.39;100361.84;5066614;28;1013;-62
2023/07/07 04:11:33;;;;;;;;;;;;;;;16.33;47.56;100367.66;5075544;28;1062;-63
2023/07/07 04:13:59;;;;;;;;;;;;;;;16.36;47.40;100373.38;5057452;28;1902;-63
2023/07/07 04:16:25;;;;;;;;;;;;;;;16.31;47.21;100367.09;5075579;28;1134;-65
2023/07/07 04:18:53;;;;;;;;;;;;;;;16.37;47.06;100382.44;5052774;28;1204;-64
2023/07/07 04:21:20;;;;;;;;;;;;;;;16.40;47.04;100379.94;5072691;28;1099;-66
2023/07/07 04:23:47;;;;;;;;;;;;;;;16.30;47.43;100373.69;5075584;28;1143;-60
2023/07/07 04:26:12;;;;;;;;;;;;;;;16.24;47.22;100373.72;5074688;28;1268;-60
2023/07/07 04:28:38;;;;;;;;;;;;;;;16.33;47.09;100364.91;5065510;28;1135;-59
2023/07/07 04:31:05;;;;;;;;;;;;;;;16.38;47.18;100376.69;5070351;28;1370;-60
2023/07/07 04:33:30;;;;;;;;;;;;;;;16.40;47.01;100366.22;5075871;28;1955;-58
2023/07/07 04:35:57;;;;;;;;;;;;;;;16.36;47.19;100359.66;5075868;28;1323;-56
2023/07/07 04:38:30;;;;;;;;;;;;;;;16.31;47.39;100367.09;5077179;28;1086;-56
2023/07/07 04:41:14;;;;;;;;;;;;;;;16.50;46.89;100372.78;5078553;28;1088;-56
2023/07/07 04:43:41;;;;;;;;;;;;;;;16.45;47.04;100381.03;5059426;28;1139;-56
2023/07/07 04:46:07;;;;;;;;;;;;;;;16.39;47.36;100369.25;5072926;28;1129;-55
2023/07/07 04:48:33;;;;;;;;;;;;;;;16.44;47.06;100377.47;5078637;28;1289;-56
2023/07/07 04:50:59;;;;;;;;;;;;;;;16.36;47.16;100375.31;5067585;28;1000;-56
2023/07/07 04:53:25;;;;;;;;;;;;;;;17.70;46.04;100394.41;5066619;28;1111;-54
2023/07/07 04:55:51;;;;;;;;;;;;;;;17.18;47.87;100383.06;5074492;28;1395;-53
2023/07/07 04:58:16;;;;;;;;;;;;;;;17.00;48.62;100390.06;5060045;28;1162;-53
2023/07/07 05:00:42;;;;;;;;;;;;;;;16.87;49.66;100386.00;5058506;28;1099;-54
2023/07/07 05:03:07;;;;;;;;;;;;;;;16.80;50.18;100390.16;5071262;28;1292;-52
2023/07/07 05:05:36;;;;;;;;;;;;;;;16.73;50.84;100405.03;5058222;28;1273;-53
2023/07/07 05:08:02;;;;;;;;;;;;;;;16.66;51.41;100392.72;5060169;28;1230;-55
2023/07/07 05:10:27;;;;;;;;;;;;;;;16.61;51.67;100379.84;5069884;28;1316;-52
2023/07/07 05:12:53;;;;;;;;;;;;;;;16.66;51.93;100390.81;5058165;28;1301;-53
2023/07/07 05:15:18;;;;;;;;;;;;;;;16.58;52.12;100394.16;5058666;28;1913;-61
2023/07/07 05:17:44;;;;;;;;;;;;;;;16.56;52.78;100394.44;5064166;28;1332;-61
2023/07/07 05:20:10;;;;;;;;;;;;;;;16.54;53.00;100406.78;5079003;28;1332;-62
2023/07/07 05:22:36;;;;;;;;;;;;;;;16.50;53.25;100420.25;5078381;28;1131;-60
2023/07/07 05:25:01;;;;;;;;;;;;;;;16.50;53.42;100417.50;5072868;28;1289;-61
2023/07/07 05:27:27;;;;;;;;;;;;;;;16.42;53.93;100402.47;5063823;28;1312;-64
2023/07/07 05:29:53;;;;;;;;;;;;;;;16.43;54.18;100406.00;5078381;28;1135;-61
2023/07/07 05:32:18;;;;;;;;;;;;;;;16.45;54.14;100417.50;5063435;28;1395;-60
2023/07/07 05:34:44;;;;;;;;;;;;;;;16.46;54.29;100410.94;5058166;28;1997;-60
2023/07/07 05:37:09;;;;;;;;;;;;;;;16.42;54.51;100416.19;5058507;28;1181;-62
2023/07/07 05:39:35;;;;;;;;;;;;;;;16.42;54.81;100412.59;5058080;28;995;-59
2023/07/07 05:42:00;;;;;;;;;;;;;;;16.33;55.13;100408.81;5071018;28;1511;-60
2023/07/07 05:44:26;;;;;;;;;;;;;;;16.33;55.01;100420.59;5069354;28;1105;-59
2023/07/07 05:46:52;;;;;;;;;;;;;;;16.31;55.53;100428.28;5077285;28;1190;-59
2023/07/07 05:49:17;;;;;;;;;;;;;;;16.34;55.58;100438.72;5077037;28;1103;-60
2023/07/07 05:51:43;;;;;;;;;;;;;;;16.34;55.56;100427.72;5059300;28;1130;-58
2023/07/07 05:54:09;;;;;;;;;;;;;;;16.31;55.75;100422.78;5057604;28;1913;-56
2023/07/07 05:56:34;;;;;;;;;;;;;;;16.30;56.01;100421.16;5076124;28;1155;-59
2023/07/07 05:59:01;;;;;;;;;;;;;;;16.30;56.23;100414.84;5064938;28;1042;-57
2023/07/07 06:01:27;;;;;;;;;;;;;;;16.32;56.16;100413.47;5063225;28;1047;-56
2023/07/07 06:03:52;;;;;;;;;;;;;;;16.29;56.20;100414.03;5076735;28;1031;-57
2023/07/07 06:06:18;;;;;;;;;;;;;;;16.32;56.04;100416.19;5065847;28;976;-56
2023/07/07 06:08:44;;;;;;;;;;;;;;;16.24;56.49;100416.78;5070942;28;1146;-58
2023/07/07 06:11:09;;;;;;;;;;;;;;;16.27;56.50;100408.00;5070827;28;1150;-58
2023/07/07 06:13:35;;;;;;;;;;;;;;;16.23;56.63;100412.41;5057450;28;1918;-62
2023/07/07 06:16:00;;;;;;;;;;;;;;;16.26;56.59;100420.06;5057618;28;1126;-58
2023/07/07 06:18:26;;;;;;;;;;;;;;;16.23;56.63;100412.41;5070777;28;1182;-61
2023/07/07 06:20:52;;;;;;;;;;;;;;;16.25;56.72;100418.44;5049507;28;1088;-60
2023/07/07 06:23:18;;;;;;;;;;;;;;;16.20;56.85;100410.22;5075756;28;1001;-58
2023/07/07 06:25:43;;;;;;;;;;;;;;;16.23;56.71;100413.22;5076941;28;862;-60
2023/07/07 06:28:09;;;;;;;;;;;;;;;16.19;57.19;100419.56;5077037;28;1026;-59
2023/07/07 06:30:35;;;;;;;;;;;;;;;16.21;57.09;100426.38;5076930;28;990;-61
2023/07/07 06:33:02;;;;;;;;;;;;;;;16.22;57.05;100419.00;5062839;28;1098;-61
2023/07/07 06:35:28;;;;;;;;;;;;;;;16.21;57.00;100414.59;5056864;28;1978;-56
2023/07/07 06:37:54;;;;;;;;;;;;;;;16.19;57.15;100423.13;5069785;28;1008;-59
2023/07/07 06:40:19;;;;;;;;;;;;;;;16.17;57.11;100421.75;5076056;28;1074;-62
2023/07/07 06:42:45;;;;;;;;;;;;;;;16.18;57.04;100412.41;5063289;28;1178;-61
2023/07/07 06:45:13;;;;;;;;;;;;;;;16.16;57.30;100423.69;5051527;28;1206;-63
2023/07/07 06:47:39;;;;;;;;;;;;;;;16.15;57.03;100416.53;5069849;28;1098;-61
2023/07/07 06:50:04;;;;;;;;;;;;;;;16.16;57.21;100420.09;5074209;28;1131;-61
2023/07/07 06:52:30;;;;;;;;;;;;;;;16.20;57.31;100410.22;5076460;28;1007;-59
2023/07/07 06:54:56;;;;;;;;;;;;;;;16.17;57.31;100405.28;5071220;28;1906;-60
2023/07/07 06:57:22;;;;;;;;;;;;;;;16.17;57.49;100410.78;5056945;28;1059;-62
2023/07/07 06:59:47;;;;;;;;;;;;;;;16.17;57.27;100416.25;5069978;28;1120;-61
2023/07/07 07:02:13;;;;;;;;;;;;;;;16.15;57.41;100413.81;5059212;28;1202;-60
2023/07/07 07:04:41;;;;;;;;;;;;;;;16.16;57.38;100414.59;5064992;28;1151;-62
2023/07/07 07:07:10;;;;;;;;;;;;;;;16.18;57.41;100413.22;5063643;28;1107;-60
2023/07/07 07:09:35;;;;;;;;;;;;;;;16.15;57.59;100402.81;5075363;28;1070;-59
2023/07/07 07:12:01;;;;;;;;;;;;;;;16.15;57.67;100402.00;5075705;28;1035;-56
2023/07/07 07:14:26;;;;;;;;;;;;;;;16.13;57.75;100406.94;5064841;28;1902;-59
2023/07/07 07:16:52;;;;;;;;;;;;;;;16.08;57.60;100408.59;5055851;28;996;-56
2023/07/07 07:19:17;;;;;;;;;;;;;;;16.12;57.70;100402.56;5069346;28;1143;-59
2023/07/07 07:21:43;;;;;;;;;;;;;;;16.16;57.67;100406.38;5065831;28;1058;-61
2023/07/07 07:24:08;;;;;;;;;;;;;;;16.13;57.59;100421.50;5062823;28;1257;-61
2023/07/07 07:26:34;;;;;;;;;;;;;;;16.13;57.59;100412.44;5062619;28;1054;-59
2023/07/07 07:29:00;;;;;;;;;;;;;;;16.11;57.61;100423.69;5067746;28;1118;-61
2023/07/07 07:31:26;;;;;;;;;;;;;;;16.11;57.58;100422.88;5057579;28;1138;-62
2023/07/07 07:33:53;;;;;;;;;;;;;;;16.15;57.68;100423.97;5064122;28;1993;-59
2023/07/07 07:36:18;;;;;;;;;;;;;;;16.11;57.44;100433.84;5060332;28;1026;-59
2023/07/07 07:38:44;;;;;;;;;;;;;;;16.09;57.86;100442.34;5056157;28;1082;-60
2023/07/07 07:41:10;;;;;;;;;;;;;;;16.11;57.65;100436.59;5068636;28;1023;-61
2023/07/07 07:43:35;;;;;;;;;;;;;;;16.10;57.78;100443.97;5069554;28;1052;-57
2023/07/07 07:46:01;;;;;;;;;;;;;;;16.11;57.72;100442.88;5062303;28;1095;-59
2023/07/07 07:48:26;;;;;;;;;;;;;;;16.08;57.66;100440.72;5074000;28;1158;-57
2023/07/07 07:50:52;;;;;;;;;;;;;;;16.10;58.03;100448.66;5068550;28;895;-60
2023/07/07 07:53:19;;;;;;;;;;;;;;;16.11;57.75;100445.63;5068951;28;1324;-56
2023/07/07 07:55:44;;;;;;;;;;;;;;;16.09;57.76;100442.34;5055096;28;1987;-60
2023/07/07 07:58:11;;;;;;;;;;;;;;;16.11;57.71;100445.63;5073299;28;1689;-57
2023/07/07 08:00:36;;;;;;;;;;;;;;;16.10;57.70;100438.50;5059718;28;1139;-57
2023/07/07 08:03:02;;;;;;;;;;;;;;;16.15;57.87;100451.38;5060799;28;1108;-58
2023/07/07 08:05:27;;;;;;;;;;;;;;;16.14;58.00;100447.81;5070096;28;1337;-59
2023/07/07 08:07:53;;;;;;;;;;;;;;;16.14;58.01;100439.56;5055159;28;1205;-60
2023/07/07 08:10:18;;;;;;;;;;;;;;;16.13;57.99;100445.34;5044962;28;1399;-60
2023/07/07 08:12:44;;;;;;;;;;;;;;;16.11;58.29;100439.34;5037922;28;1321;-60
2023/07/07 08:15:10;;;;;;;;;;;;;;;16.15;58.21;100443.16;5055750;28;1918;-61
2023/07/07 08:17:35;;;;;;;;;;;;;;;16.19;58.09;100464.25;5055381;28;1345;-60
2023/07/07 08:20:01;;;;;;;;;;;;;;;16.16;58.17;100455.75;5068362;28;1140;-63
2023/07/07 08:22:26;;;;;;;;;;;;;;;16.13;58.10;100439.84;5062199;28;1085;-60
2023/07/07 08:24:53;;;;;;;;;;;;;;;16.14;58.23;100433.28;5072610;28;1375;-63
2023/07/07 08:27:19;;;;;;;;;;;;;;;16.16;58.07;100442.03;5067895;28;835;-64
2023/07/07 08:29:44;;;;;;;;;;;;;;;16.11;58.34;100439.34;5065317;28;1059;-63
2023/07/07 08:32:13;;;;;;;;;;;;;;;16.17;58.23;100451.91;5055277;28;1336;-57
2023/07/07 08:34:39;;;;;;;;;;;;;;;16.16;58.11;100442.03;5054859;28;1909;-60
2023/07/07 08:37:04;;;;;;;;;;;;;;;16.15;58.16;100445.91;5055376;28;1103;-58
2023/07/07 08:39:30;;;;;;;;;;;;;;;16.17;58.24;100444.53;5073300;28;996;-59
2023/07/07 08:42:02;;;;;;;;;;;;;;;16.11;58.41;100447.56;5074979;28;1027;-59
2023/07/07 08:44:28;;;;;;;;;;;;;;;16.15;58.14;100430.25;5051050;28;962;-59
2023/07/07 08:47:12;;;;;;;;;;;;;;;16.15;58.21;100430.25;5068078;28;1028;-59
2023/07/07 08:49:41;;;;;;;;;;;;;;;16.18;58.14;100428.88;5063966;28;1199;-61
2023/07/07 08:52:22;;;;;;;;;;;;;;;16.15;58.44;100437.69;5054761;28;1397;-58
2023/07/07 08:54:51;;;;;;;;;;;;;;;16.18;58.42;100437.91;5072249;28;1983;-61
2023/07/07 08:57:18;;;;;;;;;;;;;;;16.20;58.14;100443.13;5057092;28;1179;-61
2023/07/07 08:59:58;;;;;;;;;;;;;;;16.16;58.27;100429.16;5074102;28;1113;-61
2023/07/07 09:02:27;;;;;;;;;;;;;;;16.18;58.55;100429.69;5042001;28;1155;-61
2023/07/07 09:04:55;;;;;;;;;;;;;;;16.23;58.32;100431.63;5072663;28;1115;-61
2023/07/07 09:07:20;;;;;;;;;;;;;;;16.31;58.19;100432.94;5078597;28;1047;-61
2023/07/07 09:09:46;;;;;;;;;;;;;;;16.21;58.38;100439.28;5072966;28;1128;-61
2023/07/07 09:12:30;;;;;;;;;;;;;;;16.22;58.61;100428.03;5070374;28;1084;-62
2023/07/07 09:14:57;;;;;;;;;;;;;;;16.20;58.42;100434.91;5073685;28;1917;-62
2023/07/07 09:17:23;;;;;;;;;;;;;;;16.28;58.54;100439.81;5070941;28;1036;-63
2023/07/07 09:19:48;;;;;;;;;;;;;;;16.23;58.48;100437.91;5060340;28;1062;-61
2023/07/07 09:22:23;;;;;;;;;;;;;;;16.24;58.65;100430.50;5060894;28;1039;-62
2023/07/07 09:24:51;;;;;;;;;;;;;;;16.24;58.54;100442.31;5059890;28;1505;-59
2023/07/07 09:27:18;;;;;;;;;;;;;;;16.28;58.37;100436.25;5068553;28;1095;-62
2023/07/07 09:29:44;;;;;;;;;;;;;;;16.31;58.34;100428.28;5078361;28;1308;-65
2023/07/07 09:32:10;;;;;;;;;;;;;;;16.31;58.37;100433.75;5078417;28;1339;-60
2023/07/07 09:34:36;;;;;;;;;;;;;;;16.26;58.43;100431.06;5078813;28;1901;-59
2023/07/07 09:37:17;;;;;;;;;;;;;;;16.25;58.42;100421.16;5078337;28;1253;-59
2023/07/07 09:39:48;;;;;;;;;;;;;;;16.30;58.53;100425.81;5075964;28;1437;-63
2023/07/07 09:42:14;;;;;;;;;;;;;;;16.35;58.28;100423.06;5078334;28;1395;-62
2023/07/07 09:44:43;;;;;;;;;;;;;;;16.32;58.41;100424.44;5078149;28;1047;-59
2023/07/07 09:47:14;;;;;;;;;;;;;;;16.33;58.39;100417.84;5062909;28;1352;-60
2023/07/07 09:49:43;;;;;;;;;;;;;;;16.32;58.52;100429.91;5076641;28;1249;-59
2023/07/07 09:52:18;;;;;;;;;;;;;;;16.33;58.51;100426.09;5054895;28;1066;-59
2023/07/07 09:54:44;;;;;;;;;;;;;;;16.33;58.36;100426.09;5065842;28;1918;-59
2023/07/07 09:57:15;;;;;;;;;;;;;;;16.33;58.50;100426.09;5050742;28;1098;-60
2023/07/07 09:59:42;;;;;;;;;;;;;;;16.34;58.70;100421.41;5053476;28;1033;-61
2023/07/07 10:02:18;;;;;;;;;;;;;;;16.31;58.56;100431.00;5044040;28;1033;-59
2023/07/07 10:04:44;;;;;;;;;;;;;;;16.36;58.55;100431.00;5058203;28;844;-60
2023/07/07 10:07:10;;;;;;;;;;;;;;;16.40;58.52;100421.09;5047878;28;1100;-59
2023/07/07 10:09:35;;;;;;;;;;;;;;;16.37;58.62;100427.16;5058722;28;1027;-57
2023/07/07 10:12:01;;;;;;;;;;;;;;;16.36;58.62;100409.06;5070933;28;1277;-60
2023/07/07 10:14:27;;;;;;;;;;;;;;;16.39;58.54;100419.47;5070436;28;1913;-59
2023/07/07 10:16:56;;;;;;;;;;;;;;;16.40;58.52;100425.78;5058458;28;1309;-60
2023/07/07 10:19:22;;;;;;;;;;;;;;;16.46;58.59;100426.59;5077091;28;1067;-59
2023/07/07 10:21:48;;;;;;;;;;;;;;;16.41;58.55;100425.50;5064375;28;1060;-58
2023/07/07 10:24:13;;;;;;;;;;;;;;;16.43;58.46;100430.72;5063817;28;1142;-58
2023/07/07 10:26:39;;;;;;;;;;;;;;;16.45;58.56;100425.75;5048669;28;1339;-59
2023/07/07 10:29:05;;;;;;;;;;;;;;;16.43;58.42;100415.06;5076295;28;1003;-57
2023/07/07 10:31:30;;;;;;;;;;;;;;;16.40;58.51;100428.53;5045858;28;1316;-58
2023/07/07 10:34:04;;;;;;;;;;;;;;;16.46;58.77;100421.09;5067555;28;1933;-58
2023/07/07 10:36:31;;;;;;;;;;;;;;;16.41;58.76;100406.28;5056693;28;1183;-58
2023/07/07 10:38:57;;;;;;;;;;;;;;;16.42;58.79;100418.09;5066443;28;1134;-59
2023/07/07 10:41:23;;;;;;;;;;;;;;;16.40;58.83;100401.91;5064972;28;1071;-55
2023/07/07 10:43:48;;;;;;;;;;;;;;;16.43;58.55;100398.59;5071447;28;1016;-59
2023/07/07 10:46:14;;;;;;;;;;;;;;;16.44;58.76;100399.44;5076300;28;1087;-58
2023/07/07 10:48:46;;;;;;;;;;;;;;;16.47;58.80;100389.81;5073489;28;1180;-57
2023/07/07 10:51:11;;;;;;;;;;;;;;;16.47;58.61;100389.81;5048894;28;1008;-61
2023/07/07 10:53:40;;;;;;;;;;;;;;;16.50;58.75;100383.75;5065979;28;1135;-59
2023/07/07 10:56:21;;;;;;;;;;;;;;;16.47;58.60;100387.88;5045763;28;1028;-59
2023/07/07 10:58:46;;;;;;;;;;;;;;;16.51;58.53;100382.63;5045355;28;1161;-60
2023/07/07 11:01:18;;;;;;;;;;;;;;;16.49;58.67;100382.91;5070745;28;1104;-59
2023/07/07 11:03:46;;;;;;;;;;;;;;;16.52;58.56;100376.03;5074675;28;1242;-61
2023/07/07 11:06:30;;;;;;;;;;;;;;;16.47;58.96;100376.09;5066709;28;1201;-63
2023/07/07 11:09:19;;;;;;;;;;;;;;;16.53;58.61;100381.25;5075406;28;1123;-65
2023/07/07 11:11:47;;;;;;;;;;;;;;;16.50;58.76;100367.28;5027345;28;1101;-59
2023/07/07 11:14:20;;;;;;;;;;;;;;;16.53;58.85;100380.44;5055797;28;1914;-64
2023/07/07 11:16:46;;;;;;;;;;;;;;;16.52;58.67;100365.06;5040132;28;1213;-65
2023/07/07 11:19:18;;;;;;;;;;;;;;;16.53;58.69;100355.75;5055920;28;1301;-63
2023/07/07 11:21:49;;;;;;;;;;;;;;;16.57;58.44;100354.06;5056584;28;1300;-64
2023/07/07 11:24:21;;;;;;;;;;;;;;;16.53;58.56;100356.53;5055913;28;1269;-63
2023/07/07 11:26:51;;;;;;;;;;;;;;;16.53;58.88;100342.00;5055409;28;1325;-65
2023/07/07 11:29:38;;;;;;;;;;;;;;;16.57;58.71;100343.09;5047713;28;1063;-66
2023/07/07 11:32:14;;;;;;;;;;;;;;;16.55;58.76;100337.03;5048258;28;1399;-63
2023/07/07 11:34:58;;;;;;;;;;;;;;;16.56;58.91;100347.78;5048251;28;1906;-60
2023/07/07 11:37:30;;;;;;;;;;;;;;;16.58;58.53;100339.25;5076512;28;1411;-66
2023/07/07 11:40:03;;;;;;;;;;;;;;;16.57;58.81;100329.38;5052604;28;1304;-66
2023/07/07 11:42:41;;;;;;;;;;;;;;;16.57;58.68;100332.09;5038458;28;1309;-62
2023/07/07 11:45:10;;;;;;;;;;;;;;;16.63;58.62;100339.19;5055893;28;1374;-64
2023/07/07 11:47:55;;;;;;;;;;;;;;;16.57;58.58;100324.69;5056036;28;1623;-60
2023/07/07 11:50:24;;;;;;;;;;;;;;;16.60;58.83;100337.03;5073836;28;1209;-64
2023/07/07 11:53:08;;;;;;;;;;;;;;;16.61;58.73;100324.94;5071466;28;1352;-64
2023/07/07 11:55:39;;;;;;;;;;;;;;;16.55;58.95;100318.66;5076147;28;1976;-64
2023/07/07 11:58:37;;;;;;;;;;;;;;;16.58;58.88;100309.06;5057742;28;1273;-66
2023/07/07 12:01:31;;;;;;;;;;;;;;;16.65;58.50;100303.22;5012057;28;1366;-60
2023/07/07 12:04:22;;;;;;;;;;;;;;;16.57;58.78;100304.66;5051801;28;1677;-56
2023/07/07 12:06:58;;;;;;;;;;;;;;;16.66;58.65;100297.47;5067660;28;1238;-58
2023/07/07 12:09:41;;;;;;;;;;;;;;;16.58;59.08;100317.28;5046900;28;1075;-55
2023/07/07 12:12:19;;;;;;;;;;;;;;;16.62;58.86;100306.53;5062634;28;1067;-55
2023/07/07 12:14:58;;;;;;;;;;;;;;;16.64;58.61;100313.38;5061578;28;1901;-57
2023/07/07 12:17:33;;;;;;;;;;;;;;;16.57;58.80;100291.75;5047738;28;940;-55
2023/07/07 12:20:03;;;;;;;;;;;;;;;16.68;58.88;100308.97;5040766;28;1040;-57
2023/07/07 12:22:30;;;;;;;;;;;;;;;16.64;58.97;100302.41;5055944;28;1324;-56
2023/07/07 12:24:59;;;;;;;;;;;;;;;16.66;58.91;100291.97;5057609;28;1028;-54
2023/07/07 12:27:30;;;;;;;;;;;;;;;16.69;58.68;100288.66;5049420;28;1098;-56
2023/07/07 12:29:56;;;;;;;;;;;;;;;16.70;58.75;100286.72;5056847;28;1086;-52
2023/07/07 12:32:21;;;;;;;;;;;;;;;16.69;58.72;100294.16;5074950;28;1038;-54
2023/07/07 12:34:47;;;;;;;;;;;;;;;16.71;58.58;100263.66;5073443;28;1976;-53
2023/07/07 12:37:20;;;;;;;;;;;;;;;16.72;58.96;100288.06;5063125;28;1048;-58
2023/07/07 12:39:53;;;;;;;;;;;;;;;16.70;58.92;100298.50;5075082;28;1206;-58
2023/07/07 12:42:18;;;;;;;;;;;;;;;16.71;58.84;100293.84;5051472;28;1218;-59
2023/07/07 12:44:45;;;;;;;;;;;;;;;16.76;58.64;100286.41;5061349;28;1035;-60
2023/07/07 12:47:30;;;;;;;;;;;;;;;16.74;58.74;100290.53;5058598;28;1102;-59
2023/07/07 12:50:05;;;;;;;;;;;;;;;16.73;58.92;100281.50;5047853;28;1087;-58
2023/07/07 12:52:41;;;;;;;;;;;;;;;16.76;58.79;100283.66;5055787;28;1030;-60
2023/07/07 12:55:20;;;;;;;;;;;;;;;16.77;58.77;100293.53;5069733;28;1901;-54